Terminal Aerodrome Forecast
Issued by NWS Des Moines, IA

Home | Current Version | Previous Version | Text Only | Print | Product List | Glossary On
Versions: 1 2 3 4 5 6 7 8 9 10 11 12 13 14 15 16 17 18
000
FTUS43 KDMX 221733
TAFALO
TAF
KALO 221733Z 2218/2318 VRB03KT P6SM SCT030
     FM230800 12005KT P6SM VCTS BKN040CB BKN130
     FM231300 14006KT P6SM BKN060=

USA.gov is the U.S. government's official web portal to all federal, state and local government web resources and services.